createdAt,value
2019-04-23T00:00:26.499Z,0.00
2019-04-23T00:01:38.583Z,0.00
2019-04-23T00:02:30.111Z,0.00
2019-04-23T00:03:30.563Z,0.00
2019-04-23T00:04:24.006Z,0.00
2019-04-23T00:05:35.457Z,0.00
2019-04-23T00:06:53.857Z,0.00
2019-04-23T00:07:44.524Z,0.00
2019-04-23T00:08:37.735Z,0.00
2019-04-23T00:09:30.383Z,0.00
2019-04-23T00:10:30.299Z,0.00
2019-04-23T00:12:40.588Z,0.00
2019-04-23T00:13:29.326Z,0.00
2019-04-23T00:14:29.890Z,0.00
2019-04-23T00:15:23.372Z,0.00
2019-04-23T00:17:33.477Z,0.00
2019-04-23T00:19:26.169Z,0.00
2019-04-23T00:20:25.823Z,0.00
2019-04-23T00:21:26.641Z,0.00
2019-04-23T00:22:31.253Z,0.00
2019-04-23T00:23:28.190Z,0.00
2019-04-23T00:24:46.666Z,0.00
2019-04-23T00:26:33.230Z,0.00
2019-04-23T00:27:35.561Z,0.00
2019-04-23T00:28:37.402Z,0.00
2019-04-23T00:29:32.773Z,0.00
2019-04-23T00:30:41.454Z,0.00
2019-04-23T00:31:34.991Z,0.00
2019-04-23T00:32:30.268Z,0.00
2019-04-23T00:34:37.799Z,0.00
2019-04-23T00:35:25.867Z,0.00
2019-04-23T00:36:32.595Z,0.00
2019-04-23T00:38:33.645Z,0.00
2019-04-23T00:39:23.709Z,0.00
2019-04-23T00:40:25.921Z,0.00
2019-04-23T00:41:33.357Z,0.00
2019-04-23T00:42:29.598Z,0.00
2019-04-23T00:43:27.292Z,0.00
2019-04-23T00:44:37.721Z,0.00
2019-04-23T00:45:33.304Z,0.00
2019-04-23T00:46:31.486Z,0.00
2019-04-23T00:47:33.001Z,0.00
2019-04-23T00:48:36.401Z,0.00
2019-04-23T00:49:28.974Z,0.00
2019-04-23T00:50:30.267Z,0.00
2019-04-23T00:51:34.680Z,0.00
2019-04-23T00:52:26.441Z,0.00
2019-04-23T00:53:37.142Z,0.00
2019-04-23T00:54:28.819Z,0.00
2019-04-23T00:55:39.761Z,0.00
2019-04-23T00:57:34.297Z,0.00
2019-04-23T00:58:36.657Z,0.00
2019-04-23T00:59:28.224Z,0.00
2019-04-23T01:00:33.711Z,0.00
2019-04-23T01:01:31.942Z,0.00
2019-04-23T01:02:33.576Z,0.00
2019-04-23T01:03:21.557Z,0.00
2019-04-23T01:04:27.452Z,0.00
2019-04-23T01:06:23.654Z,0.00
2019-04-23T01:07:24.641Z,0.00
2019-04-23T01:08:27.926Z,0.00
2019-04-23T01:09:29.316Z,0.00
2019-04-23T01:10:29.168Z,0.00
2019-04-23T01:11:22.848Z,0.00
2019-04-23T01:12:31.735Z,0.00
2019-04-23T01:13:36.294Z,0.00
2019-04-23T01:14:31.590Z,0.00
2019-04-23T01:15:32.871Z,0.00
2019-04-23T01:16:22.915Z,0.00
2019-04-23T01:17:32.247Z,0.00
2019-04-23T01:19:31.577Z,0.00
2019-04-23T01:20:28.960Z,0.00
2019-04-23T01:21:05.734Z,0.00
2019-04-23T01:22:06.412Z,0.00
2019-04-23T01:23:05.596Z,0.00
2019-04-23T01:24:10.277Z,0.00
2019-04-23T01:25:13.422Z,0.00
2019-04-23T01:26:23.903Z,0.00
2019-04-23T01:28:35.554Z,0.00
2019-04-23T01:29:39.183Z,0.00
2019-04-23T01:30:31.592Z,0.00
2019-04-23T01:31:48.006Z,0.00
2019-04-23T01:32:31.446Z,0.00
2019-04-23T01:34:34.613Z,0.00
2019-04-23T01:35:50.996Z,0.00
2019-04-23T01:37:35.228Z,0.00
2019-04-23T01:38:35.099Z,0.00
2019-04-23T01:39:28.019Z,0.00
2019-04-23T01:40:31.904Z,0.00
2019-04-23T01:41:33.692Z,0.00
2019-04-23T01:42:35.705Z,0.00
2019-04-23T01:43:35.074Z,0.00
2019-04-23T01:44:38.689Z,0.00
2019-04-23T01:45:27.285Z,0.00
2019-04-23T01:46:37.304Z,0.00
2019-04-23T01:47:35.503Z,0.00
2019-04-23T01:48:34.259Z,0.00
2019-04-23T01:49:36.997Z,0.00
2019-04-23T01:50:50.133Z,0.00
2019-04-23T01:51:33.876Z,0.00
2019-04-23T01:53:37.101Z,0.00
2019-04-23T01:54:30.830Z,0.00
2019-04-23T01:56:28.452Z,0.00
2019-04-23T01:57:30.811Z,0.00
2019-04-23T01:59:31.698Z,0.00
2019-04-23T02:01:32.825Z,0.00
2019-04-23T02:02:38.602Z,0.00
2019-04-23T02:03:49.973Z,0.00
2019-04-23T02:04:28.656Z,0.00
2019-04-23T02:06:31.482Z,0.00
2019-04-23T02:07:39.276Z,0.00
2019-04-23T02:08:26.166Z,0.00
2019-04-23T02:09:35.731Z,0.00
2019-04-23T02:10:42.633Z,0.00
2019-04-23T02:11:37.381Z,0.00
2019-04-23T02:12:33.390Z,0.00
2019-04-23T02:13:38.354Z,0.00
2019-04-23T02:14:29.059Z,0.00
2019-04-23T02:15:32.017Z,0.00
2019-04-23T02:16:33.865Z,0.00
2019-04-23T02:17:36.338Z,0.00
2019-04-23T02:18:30.435Z,0.00
2019-04-23T02:19:29.364Z,0.00
2019-04-23T02:21:35.229Z,0.00
2019-04-23T02:22:38.196Z,0.00
2019-04-23T02:23:32.775Z,0.00
2019-04-23T02:24:39.622Z,0.00
2019-04-23T02:26:30.959Z,0.00
2019-04-23T02:27:36.318Z,0.00
2019-04-23T02:28:34.093Z,0.00
2019-04-23T02:32:39.864Z,0.00
2019-04-23T02:33:44.538Z,0.00
2019-04-23T02:36:40.520Z,0.00
2019-04-23T02:38:45.775Z,0.00
2019-04-23T02:39:46.498Z,0.00
2019-04-23T02:40:47.125Z,0.00
2019-04-23T02:41:41.358Z,0.00
2019-04-23T02:43:00.871Z,0.00
2019-04-23T02:43:26.042Z,0.00
2019-04-23T02:44:31.841Z,0.00
2019-04-23T02:45:43.966Z,0.00
2019-04-23T02:46:33.536Z,0.00
2019-04-23T02:48:44.367Z,0.00
2019-04-23T02:49:54.964Z,0.00
2019-04-23T02:51:35.148Z,0.00
2019-04-23T02:54:46.650Z,0.00
2019-04-23T02:56:49.228Z,0.00
2019-04-23T02:57:35.591Z,0.00
2019-04-23T02:58:43.989Z,0.00
2019-04-23T03:00:04.274Z,0.00
2019-04-23T03:00:40.017Z,0.00
2019-04-23T03:03:42.328Z,0.00
2019-04-23T03:06:38.999Z,0.00
2019-04-23T03:07:45.922Z,0.00
2019-04-23T03:08:39.423Z,0.00
2019-04-23T03:12:37.744Z,0.00
2019-04-23T03:14:43.736Z,0.00
2019-04-23T03:15:52.640Z,0.00
2019-04-23T03:17:36.472Z,0.00
2019-04-23T03:19:37.989Z,0.00
2019-04-23T03:20:59.504Z,0.00
2019-04-23T03:21:44.612Z,0.00
2019-04-23T03:22:49.502Z,0.00
2019-04-23T03:23:47.224Z,0.00
2019-04-23T03:24:44.108Z,0.00
2019-04-23T03:25:31.315Z,0.00
2019-04-23T03:36:18.302Z,0.00
2019-04-23T03:37:00.670Z,0.00
2019-04-23T03:37:40.764Z,0.00
2019-04-23T03:39:55.091Z,0.00
2019-04-23T03:40:27.655Z,0.00
2019-04-23T03:42:42.639Z,0.00
2019-04-23T03:44:45.007Z,0.00
2019-04-23T03:47:32.024Z,0.00
2019-04-23T03:50:35.400Z,0.00
2019-04-23T03:51:36.574Z,0.00
2019-04-23T03:53:43.153Z,0.00
2019-04-23T03:56:45.230Z,0.00
2019-04-23T03:58:41.400Z,0.00
2019-04-23T04:00:37.258Z,0.00
2019-04-23T04:02:48.498Z,0.00
2019-04-23T04:04:10.749Z,0.00
2019-04-23T04:05:42.523Z,0.00
2019-04-23T04:09:47.966Z,0.00
2019-04-23T04:10:54.974Z,0.00
2019-04-23T04:11:25.779Z,0.00
2019-04-23T04:12:34.889Z,0.00
2019-04-23T04:14:38.394Z,5.63
2019-04-23T04:15:51.017Z,5.63
2019-04-23T04:16:36.512Z,5.63
2019-04-23T04:18:41.086Z,5.63
2019-04-23T04:19:47.877Z,5.63
2019-04-23T04:21:33.798Z,11.25
2019-04-23T04:22:54.471Z,11.25
2019-04-23T04:23:43.474Z,11.25
2019-04-23T04:24:36.946Z,11.25
2019-04-23T04:26:44.355Z,16.88
2019-04-23T04:28:38.426Z,16.88
2019-04-23T04:30:38.448Z,22.50
2019-04-23T04:31:42.484Z,22.50
2019-04-23T04:32:36.625Z,28.13
2019-04-23T04:35:27.352Z,33.75
2019-04-23T04:36:45.850Z,33.75
2019-04-23T04:37:56.367Z,33.75
2019-04-23T04:38:40.573Z,39.38
2019-04-23T04:39:35.190Z,39.38
2019-04-23T04:41:31.190Z,45.00
2019-04-23T04:42:59.181Z,45.00
2019-04-23T04:45:45.134Z,56.25
2019-04-23T04:48:40.284Z,61.88
2019-04-23T04:49:42.584Z,67.50
2019-04-23T04:50:31.358Z,67.50
2019-04-23T04:51:37.661Z,67.50
2019-04-23T04:52:41.183Z,73.13
2019-04-23T04:54:23.062Z,78.75
2019-04-23T04:55:36.272Z,84.38
2019-04-23T04:57:36.507Z,90.00
2019-04-23T04:58:43.404Z,90.00
2019-04-23T04:59:40.033Z,95.63
2019-04-23T05:00:44.036Z,90.00
2019-04-23T05:01:30.216Z,95.63
2019-04-23T05:03:26.957Z,101.25
2019-04-23T05:04:37.901Z,101.25
2019-04-23T05:06:39.399Z,106.88
2019-04-23T05:07:34.065Z,112.50
2019-04-23T05:09:43.823Z,118.13
2019-04-23T05:10:43.256Z,118.13
2019-04-23T05:11:38.651Z,123.75
2019-04-23T05:12:34.925Z,129.38
2019-04-23T05:13:41.172Z,129.38
2019-04-23T05:14:35.390Z,135.00
2019-04-23T05:15:35.518Z,135.00
2019-04-23T05:16:37.070Z,135.00
2019-04-23T05:17:32.501Z,140.63
2019-04-23T05:18:34.660Z,146.25
2019-04-23T05:22:33.703Z,168.75
2019-04-23T05:23:28.122Z,180.00
2019-04-23T05:24:31.719Z,208.13
2019-04-23T05:25:25.483Z,230.63
2019-04-23T05:26:29.252Z,247.50
2019-04-23T05:27:28.346Z,253.13
2019-04-23T05:28:29.955Z,253.13
2019-04-23T05:29:19.984Z,258.75
2019-04-23T05:30:36.368Z,270.00
2019-04-23T05:31:23.167Z,275.63
2019-04-23T05:32:26.465Z,275.63
2019-04-23T05:34:24.276Z,292.50
2019-04-23T05:37:33.489Z,309.38
2019-04-23T05:38:35.925Z,315.00
2019-04-23T05:39:32.003Z,326.25
2019-04-23T05:40:37.121Z,331.88
2019-04-23T05:42:26.079Z,343.13
2019-04-23T05:43:27.912Z,354.38
2019-04-23T05:44:33.799Z,354.38
2019-04-23T05:45:30.081Z,326.25
2019-04-23T05:47:27.362Z,343.13
2019-04-23T05:48:23.439Z,354.38
2019-04-23T05:49:24.785Z,360.00
2019-04-23T05:50:39.233Z,376.88
2019-04-23T05:51:31.138Z,399.38
2019-04-23T05:52:31.275Z,410.63
2019-04-23T05:53:27.014Z,393.75
2019-04-23T05:54:26.584Z,348.75
2019-04-23T05:55:32.343Z,326.25
2019-04-23T05:56:30.811Z,365.63
2019-04-23T05:57:20.059Z,360.00
2019-04-23T05:58:30.078Z,421.88
2019-04-23T05:59:24.710Z,472.50
2019-04-23T06:00:34.427Z,388.13
2019-04-23T06:02:26.585Z,303.75
2019-04-23T06:03:42.068Z,376.88
2019-04-23T06:05:25.022Z,444.38
2019-04-23T06:06:52.417Z,405.00
2019-04-23T06:07:42.261Z,382.50
2019-04-23T06:08:38.474Z,382.50
2019-04-23T06:09:26.460Z,388.13
2019-04-23T06:10:27.218Z,416.25
2019-04-23T06:11:37.072Z,478.13
2019-04-23T06:12:26.984Z,556.88
2019-04-23T06:13:26.040Z,630.00
2019-04-23T06:14:28.460Z,624.38
2019-04-23T06:15:29.022Z,590.63
2019-04-23T06:16:32.766Z,630.00
2019-04-23T06:17:43.083Z,731.25
2019-04-23T06:18:30.503Z,731.25
2019-04-23T06:19:21.309Z,697.50
2019-04-23T06:20:28.207Z,658.13
2019-04-23T06:21:34.241Z,652.50
2019-04-23T06:22:28.977Z,731.25
2019-04-23T06:23:36.554Z,742.50
2019-04-23T06:24:28.415Z,781.88
2019-04-23T06:25:39.999Z,821.25
2019-04-23T06:27:27.430Z,686.25
2019-04-23T06:28:27.752Z,826.88
2019-04-23T06:29:37.635Z,866.25
2019-04-23T06:30:35.294Z,691.88
2019-04-23T06:31:31.205Z,624.38
2019-04-23T06:32:25.856Z,720.00
2019-04-23T06:33:25.962Z,714.38
2019-04-23T06:35:47.079Z,613.13
2019-04-23T06:36:25.661Z,652.50
2019-04-23T06:37:25.805Z,860.63
2019-04-23T06:39:28.548Z,551.25
2019-04-23T06:40:27.715Z,523.13
2019-04-23T06:41:34.513Z,590.63
2019-04-23T06:42:30.762Z,804.38
2019-04-23T06:43:24.328Z,849.38
2019-04-23T06:44:25.617Z,866.25
2019-04-23T06:45:26.051Z,922.50
2019-04-23T06:46:33.666Z,905.63
2019-04-23T06:47:36.107Z,871.88
2019-04-23T06:48:32.094Z,708.75
2019-04-23T06:49:30.492Z,725.63
2019-04-23T06:50:27.174Z,883.13
2019-04-23T06:51:28.226Z,883.13
2019-04-23T06:53:21.470Z,804.38
2019-04-23T06:54:25.697Z,534.38
2019-04-23T06:55:33.809Z,534.38
2019-04-23T06:56:26.916Z,534.38
2019-04-23T06:57:22.326Z,545.63
2019-04-23T06:58:32.385Z,579.38
2019-04-23T06:59:29.342Z,703.13
2019-04-23T07:00:27.885Z,866.25
2019-04-23T07:01:30.196Z,1130.63
2019-04-23T07:02:30.608Z,1074.38
2019-04-23T07:03:35.899Z,1102.50
2019-04-23T07:04:29.021Z,1096.88
2019-04-23T07:05:27.627Z,1220.63
2019-04-23T07:07:44.959Z,1125.00
2019-04-23T07:08:39.918Z,1012.50
2019-04-23T07:09:22.671Z,967.50
2019-04-23T07:10:28.346Z,1040.63
2019-04-23T07:11:28.656Z,961.88
2019-04-23T07:12:35.121Z,860.63
2019-04-23T07:13:34.600Z,810.00
2019-04-23T07:14:30.803Z,1063.13
2019-04-23T07:15:38.045Z,1068.75
2019-04-23T07:16:21.561Z,1085.63
2019-04-23T07:17:21.339Z,776.25
2019-04-23T07:18:27.708Z,714.38
2019-04-23T07:20:28.675Z,748.13
2019-04-23T07:21:22.005Z,742.50
2019-04-23T07:22:21.692Z,860.63
2019-04-23T07:23:29.977Z,1001.25
2019-04-23T07:24:21.523Z,821.25
2019-04-23T07:25:29.551Z,793.13
2019-04-23T07:27:37.851Z,815.63
2019-04-23T07:28:29.002Z,815.63
2019-04-23T07:29:27.180Z,1040.63
2019-04-23T07:30:38.352Z,984.38
2019-04-23T07:31:44.551Z,1153.13
2019-04-23T07:32:29.115Z,1085.63
2019-04-23T07:33:27.905Z,1113.75
2019-04-23T07:34:25.811Z,1091.25
2019-04-23T07:35:24.496Z,1125.00
2019-04-23T07:36:32.411Z,1158.75
2019-04-23T07:37:22.275Z,1417.50
2019-04-23T07:38:32.764Z,1406.25
2019-04-23T07:41:32.231Z,1400.63
2019-04-23T07:43:24.981Z,1333.13
2019-04-23T07:44:35.731Z,1057.50
2019-04-23T07:47:40.116Z,894.38
2019-04-23T07:48:34.193Z,1192.50
2019-04-23T07:49:23.433Z,1563.75
2019-04-23T07:50:38.183Z,1153.13
2019-04-23T07:51:27.718Z,1029.38
2019-04-23T07:52:41.103Z,990.00
2019-04-23T07:53:22.958Z,967.50
2019-04-23T07:56:24.104Z,1192.50
2019-04-23T07:58:23.447Z,1265.63
2019-04-23T07:59:25.299Z,1440.00
2019-04-23T08:00:34.458Z,1220.63
2019-04-23T08:01:18.344Z,1316.25
2019-04-23T08:02:28.900Z,1175.63
2019-04-23T08:03:21.055Z,1310.63
2019-04-23T08:04:31.744Z,1254.38
2019-04-23T08:05:32.007Z,1068.75
2019-04-23T08:06:21.760Z,1406.25
2019-04-23T08:07:28.271Z,1181.25
2019-04-23T08:08:28.642Z,1248.75
2019-04-23T08:09:25.567Z,1164.38
2019-04-23T08:10:31.765Z,1215.00
2019-04-23T08:11:34.344Z,1220.63
2019-04-23T08:12:32.019Z,1231.88
2019-04-23T08:13:37.936Z,1299.38
2019-04-23T08:14:26.421Z,1440.00
2019-04-23T08:15:30.954Z,1383.75
2019-04-23T08:17:26.205Z,1383.75
2019-04-23T08:18:29.284Z,1231.88
2019-04-23T08:19:35.234Z,1215.00
2019-04-23T08:20:23.037Z,1175.63
2019-04-23T08:22:28.792Z,1254.38
2019-04-23T08:23:25.643Z,1299.38
2019-04-23T08:24:16.788Z,1276.88
2019-04-23T08:25:27.254Z,1175.63
2019-04-23T08:26:38.029Z,1198.13
2019-04-23T08:27:22.673Z,1254.38
2019-04-23T08:28:38.192Z,1198.13
2019-04-23T08:29:19.947Z,1186.88
2019-04-23T08:30:17.369Z,1130.63
2019-04-23T08:31:32.075Z,1113.75
2019-04-23T08:32:19.035Z,1220.63
2019-04-23T08:33:24.854Z,1254.38
2019-04-23T08:34:32.501Z,1276.88
2019-04-23T08:35:19.962Z,1366.88
2019-04-23T08:36:29.443Z,1468.13
2019-04-23T08:37:36.450Z,1541.25
2019-04-23T08:39:28.672Z,1293.75
2019-04-23T08:41:26.961Z,1231.88
2019-04-23T08:42:39.632Z,1203.75
2019-04-23T08:44:27.394Z,1395.00
2019-04-23T08:46:33.044Z,1434.38
2019-04-23T08:47:23.250Z,1631.25
2019-04-23T08:49:29.573Z,1608.75
2019-04-23T08:50:27.545Z,1333.13
2019-04-23T08:51:38.899Z,1603.13
2019-04-23T08:52:37.005Z,1513.13
2019-04-23T08:53:37.572Z,1816.88
2019-04-23T08:54:37.001Z,1614.38
2019-04-23T08:56:38.650Z,1698.75
2019-04-23T08:57:22.691Z,1518.75
2019-04-23T08:58:38.060Z,1732.50
2019-04-23T08:59:33.069Z,1569.38
2019-04-23T09:00:24.765Z,1636.88
2019-04-23T09:01:27.553Z,1636.88
2019-04-23T09:02:35.964Z,1513.13
2019-04-23T09:04:23.637Z,1721.25
2019-04-23T09:05:34.247Z,2070.00
2019-04-23T09:06:21.687Z,1974.38
2019-04-23T09:07:28.071Z,1850.63
2019-04-23T09:08:29.506Z,1569.38
2019-04-23T09:09:27.486Z,1513.13
2019-04-23T09:10:28.233Z,1721.25
2019-04-23T09:11:38.560Z,2385.00
2019-04-23T09:12:32.092Z,2930.63
2019-04-23T09:14:20.556Z,2975.63
2019-04-23T09:15:31.595Z,2964.38
2019-04-23T09:16:24.624Z,3048.75
2019-04-23T09:17:28.507Z,3183.75
2019-04-23T09:18:26.195Z,3217.50
2019-04-23T09:19:41.322Z,3313.13
2019-04-23T09:20:34.284Z,3296.25
2019-04-23T09:21:21.368Z,3251.25
2019-04-23T09:23:28.354Z,3189.38
2019-04-23T09:24:29.534Z,3189.38
2019-04-23T09:25:29.976Z,3476.25
2019-04-23T09:26:22.287Z,3510.00
2019-04-23T09:27:31.601Z,3549.38
2019-04-23T09:28:34.527Z,3616.88
2019-04-23T09:29:30.642Z,3510.00
2019-04-23T09:31:56.478Z,3673.13
2019-04-23T09:33:32.513Z,3757.50
2019-04-23T09:34:31.284Z,3780.00
2019-04-23T09:35:27.837Z,3780.00
2019-04-23T09:36:27.478Z,3785.63
2019-04-23T09:37:40.545Z,3718.13
2019-04-23T09:38:39.651Z,3358.13
2019-04-23T09:40:32.149Z,2925.00
2019-04-23T09:42:32.281Z,2818.13
2019-04-23T09:44:50.784Z,3363.75
2019-04-23T09:45:35.802Z,3476.25
2019-04-23T09:46:24.344Z,3600.00
2019-04-23T09:48:17.755Z,3830.63
2019-04-23T09:49:29.128Z,3656.25
2019-04-23T09:51:27.335Z,3785.63
2019-04-23T09:53:27.912Z,3594.38
2019-04-23T09:54:37.822Z,3504.38
2019-04-23T09:55:32.735Z,3397.50
2019-04-23T09:56:22.383Z,3262.50
2019-04-23T09:57:17.105Z,3200.63
2019-04-23T09:58:18.140Z,3110.63
2019-04-23T10:00:31.424Z,2998.13
2019-04-23T10:01:27.844Z,3020.63
2019-04-23T10:02:20.236Z,2970.00
2019-04-23T10:03:10.675Z,2981.25
2019-04-23T10:04:07.431Z,2683.13
2019-04-23T10:05:11.090Z,2565.00
2019-04-23T10:06:04.287Z,2199.38
2019-04-23T10:07:11.268Z,2053.13
2019-04-23T10:08:06.635Z,1743.75
2019-04-23T10:09:01.437Z,1749.38
2019-04-23T10:09:57.379Z,1833.75
2019-04-23T10:10:57.481Z,1985.63
2019-04-23T10:11:56.404Z,1923.75
2019-04-23T10:12:57.992Z,1974.38
2019-04-23T10:13:56.672Z,1991.25
2019-04-23T10:15:05.704Z,1845.00
2019-04-23T10:15:58.053Z,1726.88
2019-04-23T10:16:57.937Z,1597.50
2019-04-23T10:17:56.454Z,1603.13
2019-04-23T10:18:57.442Z,1580.63
2019-04-23T10:19:56.338Z,1479.38
2019-04-23T10:20:56.562Z,1406.25
2019-04-23T10:21:57.505Z,1361.25
2019-04-23T10:22:56.732Z,1288.13
2019-04-23T10:23:57.121Z,1288.13
2019-04-23T10:24:57.137Z,1293.75
2019-04-23T10:25:56.419Z,1316.25
2019-04-23T10:26:57.727Z,1299.38
2019-04-23T10:28:01.188Z,1243.13
2019-04-23T10:28:56.623Z,1260.00
2019-04-23T10:29:56.265Z,1254.38
2019-04-23T10:30:56.584Z,1248.75
2019-04-23T10:31:57.598Z,1288.13
2019-04-23T10:32:57.746Z,1265.63
2019-04-23T10:33:57.793Z,1215.00
2019-04-23T10:35:06.699Z,1215.00
2019-04-23T10:36:02.637Z,1209.38
2019-04-23T10:36:57.539Z,1192.50
2019-04-23T10:38:03.669Z,1192.50
2019-04-23T10:39:04.936Z,1186.88
2019-04-23T10:39:59.219Z,1186.88
2019-04-23T10:40:56.289Z,1215.00
2019-04-23T10:41:57.614Z,1237.50
2019-04-23T10:42:57.695Z,1276.88
2019-04-23T10:43:56.688Z,1310.63
2019-04-23T10:45:10.831Z,1361.25
2019-04-23T10:46:15.436Z,1383.75
2019-04-23T10:47:27.138Z,1417.50
2019-04-23T10:48:32.735Z,1423.13
2019-04-23T10:49:50.861Z,1445.63
2019-04-23T10:50:27.352Z,1473.75
2019-04-23T10:51:30.528Z,1479.38
2019-04-23T10:52:53.612Z,1434.38
2019-04-23T10:53:39.935Z,1440.00
2019-04-23T10:54:34.286Z,1468.13
2019-04-23T10:55:25.949Z,1541.25
2019-04-23T10:56:27.228Z,1563.75
2019-04-23T10:57:22.607Z,1586.25
2019-04-23T10:58:22.876Z,1597.50
2019-04-23T10:59:34.194Z,1659.38
2019-04-23T11:00:23.845Z,1642.50
2019-04-23T11:01:37.233Z,1676.25
2019-04-23T11:03:45.284Z,1715.63
2019-04-23T11:04:44.760Z,1800.00
2019-04-23T11:05:29.195Z,1890.00
2019-04-23T11:06:32.525Z,1901.25
2019-04-23T11:07:30.792Z,1985.63
2019-04-23T11:08:23.953Z,2103.75
2019-04-23T11:09:44.447Z,2289.38
2019-04-23T11:10:22.046Z,2458.13
2019-04-23T11:11:27.609Z,2525.63
2019-04-23T11:12:37.095Z,2593.13
2019-04-23T11:13:40.914Z,2671.88
2019-04-23T11:14:25.368Z,2722.50
2019-04-23T11:15:38.391Z,2739.38
2019-04-23T11:16:46.028Z,2761.88
2019-04-23T11:17:35.514Z,2767.50
2019-04-23T11:18:34.407Z,2801.25
2019-04-23T11:19:34.637Z,2863.13
2019-04-23T11:20:30.252Z,2767.50
2019-04-23T11:21:28.241Z,2846.25
2019-04-23T11:22:42.681Z,2835.00
2019-04-23T11:23:22.420Z,2756.25
2019-04-23T11:24:41.969Z,2756.25
2019-04-23T11:26:31.879Z,2711.25
2019-04-23T11:27:32.675Z,2559.38
2019-04-23T11:28:25.732Z,2424.38
2019-04-23T11:29:34.367Z,2553.75
2019-04-23T11:30:36.474Z,2666.25
2019-04-23T11:31:33.330Z,2643.75
2019-04-23T11:33:19.902Z,2671.88
2019-04-23T11:35:31.181Z,2587.50
2019-04-23T11:37:39.250Z,2435.63
2019-04-23T11:39:32.554Z,2401.88
2019-04-23T11:41:45.673Z,2362.50
2019-04-23T11:42:33.164Z,2317.50
2019-04-23T11:44:28.832Z,2295.00
2019-04-23T11:44:56.470Z,2272.50
2019-04-23T11:45:36.754Z,2323.13
2019-04-23T11:46:41.209Z,2390.63
2019-04-23T11:48:02.381Z,2542.50
2019-04-23T11:50:39.674Z,2750.63
2019-04-23T11:53:27.811Z,2919.38
2019-04-23T11:54:24.152Z,2896.88
2019-04-23T11:56:51.558Z,2885.63
2019-04-23T11:59:31.299Z,2936.25
2019-04-23T12:00:33.700Z,2947.50
2019-04-23T12:01:42.205Z,2970.00
2019-04-23T12:02:26.840Z,3043.13
2019-04-23T12:03:17.793Z,2992.50
2019-04-23T12:04:28.786Z,3003.75
2019-04-23T12:05:41.318Z,2986.88
2019-04-23T12:06:23.615Z,3009.38
2019-04-23T12:07:22.918Z,2981.25
2019-04-23T12:08:36.744Z,2986.88
2019-04-23T12:09:34.961Z,2998.13
2019-04-23T12:10:29.108Z,2941.88
2019-04-23T12:11:52.336Z,2941.88
2019-04-23T12:12:28.027Z,2896.88
2019-04-23T12:13:30.167Z,2818.13
2019-04-23T12:14:35.142Z,2677.50
2019-04-23T12:15:37.931Z,2570.63
2019-04-23T12:16:34.365Z,2486.25
2019-04-23T12:18:38.736Z,2458.13
2019-04-23T12:20:28.649Z,2458.13
2019-04-23T12:21:29.912Z,2536.88
2019-04-23T12:23:31.701Z,2424.38
2019-04-23T12:24:42.055Z,2430.00
2019-04-23T12:26:35.542Z,2210.63
2019-04-23T12:28:30.150Z,2008.13
2019-04-23T12:29:31.920Z,1957.50
2019-04-23T12:30:42.091Z,1873.13
2019-04-23T12:31:26.443Z,1783.13
2019-04-23T12:33:31.729Z,1614.38
2019-04-23T12:34:28.418Z,1586.25
2019-04-23T12:36:30.552Z,1530.00
2019-04-23T12:37:33.491Z,1490.63
2019-04-23T12:38:21.892Z,1496.25
2019-04-23T12:39:27.082Z,1468.13
2019-04-23T12:41:21.150Z,1366.88
2019-04-23T12:42:43.568Z,1321.88
2019-04-23T12:43:19.025Z,1321.88
2019-04-23T12:44:25.464Z,1316.25
2019-04-23T12:46:26.440Z,1265.63
2019-04-23T12:47:37.701Z,1198.13
2019-04-23T12:49:49.039Z,1192.50
2019-04-23T12:51:38.500Z,1226.25
2019-04-23T12:52:25.293Z,1276.88
2019-04-23T12:53:36.195Z,1321.88
2019-04-23T12:54:35.641Z,1366.88
2019-04-23T12:56:34.464Z,1400.63
2019-04-23T12:57:28.735Z,1417.50
2019-04-23T12:58:26.258Z,1428.75
2019-04-23T12:59:23.242Z,1485.00
2019-04-23T13:00:29.039Z,1558.13
2019-04-23T13:01:25.689Z,1659.38
2019-04-23T13:02:33.107Z,1653.75
2019-04-23T13:03:25.419Z,1676.25
2019-04-23T13:04:26.159Z,1738.13
2019-04-23T13:05:31.743Z,1704.38
2019-04-23T13:06:23.657Z,1558.13
2019-04-23T13:07:36.792Z,1490.63
2019-04-23T13:09:35.036Z,1383.75
2019-04-23T13:10:36.712Z,1310.63
2019-04-23T13:11:30.085Z,1271.25
2019-04-23T13:12:38.190Z,1175.63
2019-04-23T13:13:35.191Z,1085.63
2019-04-23T13:14:25.215Z,1074.38
2019-04-23T13:15:22.751Z,1141.88
2019-04-23T13:16:33.016Z,1316.25
2019-04-23T13:17:29.704Z,1552.50
2019-04-23T13:18:23.600Z,1625.63
2019-04-23T13:19:37.383Z,1715.63
2019-04-23T13:20:23.551Z,1676.25
2019-04-23T13:21:45.006Z,1569.38
2019-04-23T13:22:31.844Z,1440.00
2019-04-23T13:23:22.156Z,1406.25
2019-04-23T13:24:27.513Z,1344.38
2019-04-23T13:25:33.263Z,1260.00
2019-04-23T13:26:08.986Z,1209.38
2019-04-23T13:27:29.035Z,1186.88
2019-04-23T13:28:24.545Z,1158.75
2019-04-23T13:29:34.450Z,1147.50
2019-04-23T13:30:32.569Z,1181.25
2019-04-23T13:31:18.108Z,1175.63
2019-04-23T13:32:50.277Z,1175.63
2019-04-23T13:34:23.296Z,1125.00
2019-04-23T13:35:43.607Z,1108.13
2019-04-23T13:36:23.321Z,1018.13
2019-04-23T13:37:33.645Z,933.75
2019-04-23T13:39:24.469Z,883.13
2019-04-23T13:40:37.395Z,877.50
2019-04-23T13:41:28.954Z,871.88
2019-04-23T13:42:33.705Z,871.88
2019-04-23T13:43:30.190Z,860.63
2019-04-23T13:44:29.326Z,860.63
2019-04-23T13:45:47.482Z,849.38
2019-04-23T13:46:17.829Z,849.38
2019-04-23T13:47:43.430Z,843.75
2019-04-23T13:48:16.696Z,832.50
2019-04-23T13:49:26.092Z,838.13
2019-04-23T13:50:37.502Z,832.50
2019-04-23T13:52:49.438Z,821.25
2019-04-23T13:53:38.403Z,826.88
2019-04-23T13:54:42.042Z,826.88
2019-04-23T13:55:16.550Z,826.88
2019-04-23T13:56:25.242Z,821.25
2019-04-23T13:58:23.303Z,815.63
2019-04-23T13:59:30.538Z,810.00
2019-04-23T14:00:42.260Z,810.00
2019-04-23T14:01:30.910Z,810.00
2019-04-23T14:02:34.448Z,804.38
2019-04-23T14:03:30.743Z,810.00
2019-04-23T14:04:32.445Z,810.00
2019-04-23T14:05:35.799Z,798.75
2019-04-23T14:06:43.440Z,798.75
2019-04-23T14:07:30.334Z,793.13
2019-04-23T14:08:33.530Z,787.50
2019-04-23T14:09:34.352Z,787.50
2019-04-23T14:10:29.908Z,781.88
2019-04-23T14:12:22.603Z,765.00
2019-04-23T14:13:37.079Z,759.38
2019-04-23T14:14:34.528Z,759.38
2019-04-23T14:15:36.302Z,753.75
2019-04-23T14:16:29.695Z,748.13
2019-04-23T14:17:47.062Z,742.50
2019-04-23T14:19:16.269Z,725.63
2019-04-23T14:20:21.827Z,720.00
2019-04-23T14:22:43.502Z,708.75
2019-04-23T14:23:39.642Z,703.13
2019-04-23T14:24:50.713Z,697.50
2019-04-23T14:25:18.751Z,691.88
2019-04-23T14:28:30.791Z,675.00
2019-04-23T14:29:21.578Z,675.00
2019-04-23T14:30:29.961Z,669.38
2019-04-23T14:31:17.474Z,663.75
2019-04-23T14:32:23.235Z,663.75
2019-04-23T14:33:26.698Z,658.13
2019-04-23T14:34:17.817Z,658.13
2019-04-23T14:35:25.736Z,663.75
2019-04-23T14:36:26.997Z,652.50
2019-04-23T14:40:26.443Z,630.00
2019-04-23T14:41:23.632Z,630.00
2019-04-23T14:42:24.732Z,618.75
2019-04-23T14:43:25.700Z,618.75
2019-04-23T14:44:20.191Z,613.13
2019-04-23T14:45:42.638Z,607.50
2019-04-23T14:47:40.231Z,607.50
2019-04-23T14:48:39.154Z,596.25
2019-04-23T14:49:19.260Z,596.25
2019-04-23T14:50:31.991Z,590.63
2019-04-23T14:52:45.915Z,590.63
2019-04-23T14:54:35.993Z,590.63
2019-04-23T14:56:23.950Z,585.00
2019-04-23T14:57:35.104Z,585.00
2019-04-23T14:58:36.059Z,585.00
2019-04-23T14:59:32.198Z,579.38
2019-04-23T15:00:31.499Z,579.38
2019-04-23T15:01:27.204Z,573.75
2019-04-23T15:02:28.663Z,585.00
2019-04-23T15:03:30.518Z,573.75
2019-04-23T15:04:24.281Z,573.75
2019-04-23T15:05:27.650Z,568.13
2019-04-23T15:06:29.518Z,568.13
2019-04-23T15:07:28.589Z,562.50
2019-04-23T15:08:25.193Z,562.50
2019-04-23T15:10:24.779Z,551.25
2019-04-23T15:11:29.490Z,556.88
2019-04-23T15:12:23.514Z,545.63
2019-04-23T15:13:23.211Z,545.63
2019-04-23T15:14:16.898Z,540.00
2019-04-23T15:15:25.253Z,540.00
2019-04-23T15:16:22.667Z,534.38
2019-04-23T15:17:19.993Z,534.38
2019-04-23T15:18:25.284Z,534.38
2019-04-23T15:19:32.857Z,534.38
2019-04-23T15:20:25.335Z,528.75
2019-04-23T15:22:20.101Z,528.75
2019-04-23T15:24:25.876Z,528.75
2019-04-23T15:28:12.151Z,517.50
2019-04-23T15:29:02.784Z,511.88